עמוד ראשי
METAR-TAF:

METAR-TAF

שדות תעופה :

Lanai City, הוואי, ארצות הברית

קו רוחב: 20-47N, קו אורך: 156-57W, גובה: 399מטר

תצפית מזג אוויר נוכחית

הדו"ח נערך לפני 11דקות, בשעה 10:56 UTC
רוח 3קשר מכיוון מזרח/דרום-מזרח
טמפרטורת 19 צלסיוס
לחות 88%
לחץ 1020 hPa
ראות: 16.1קילומטר
שמיים נקיים

METAR: PHNY 151056Z AUTO 12003KT 10SM CLR 19/17 A3012 RMK AO2 SLP180 T01890172

זמן: 01:07 (11:07 UTC)

תחזית

הדו"ח נערך לפני 3 שעות ו 32דקות, בשעה 07:35 UTC
תחזית בתוקף מ 15 ב 08 UTC עד 16 ב 06 UTC
רוח 8קשר מכיוון מזרח/צפון-מזרח
ראות: 10קילומטר
עננים פזורים בגובה 2500רגל
עננים בינוניים בגובה 3500רגל
מ 15 ב 2000UTC
רוח 8קשר מכיוון צפון/צפון-מערב
ראות: 10קילומטר
עננים פזורים בגובה 2500רגל
עננים בינוניים בגובה 3500רגל
מ 16 ב 0200UTC
רוח 14קשר מכיוון צפון-מזרח עם משבים עד 20קשר
ראות: 10קילומטר
מעט עננים בגובה 2500רגל
עננים פזורים בגובה 3500רגל

TAF: PHNY 150735Z 1508/1606 06008KT P6SM SCT025 BKN035 FM152000 34008KT P6SM SCT025 BKN035 FM160200 04014G20KT P6SM FEW025 SCT035

תצפיות ותחזיות מזג אוויר לגבי יותר מ- 4,000 שדות תעופה ברחבי העולם. דוחות METAR ו- TAF.

התחנות הזמינות מסומנות בנקודות צהובות ואדומות על גבי המפה.

העבר את העכבר לנקודה הצבעונית על מנת לראות את שם התחנה.

לאחר מכן, לחץ כדי לראות את תוכן ואת תחזיות מזג האוויר.

כדי לשנות את המפה: לחץ על הכפתורים הירוקים עם הפלוס השחור כדי להתקרב; על הכפתור הירוק עם המקף כדי להתרחק; או בחיצים הירוקים למפות סמוכות.


METAR-TAF: